< Typhoon 201605 2016 Season Typhoon 201607 >
Typhoon 201606 (CONSON)
General InformationTrack Information on Google MapsDetailed Wind InformationForecast History on Google MapsAccess Analytics MapList of All Images || NewsDisaster Info.WeblogTrackbackTyphoon FrontTwiphoonTyphoon Now!Typhoon ImaginationDisaster Info. XMLResourceGoogle EarthGE AnimationAtom FeedGeoJSON
Detalied Best Track (Time Zone = UTC)
Year Month Day Hour Lat. Long. Pressure (hPa) Wind (kt) Class Image Chart
2016 8 7 12 18.8 163.0 1010 0 2 Image Chart
2016 8 7 18 18.0 162.0 1008 0 2 Image Chart
2016 8 8 00 17.4 161.7 1008 0 2 Image Chart
2016 8 8 06 17.1 161.4 1006 0 2 Image Chart
2016 8 8 12 17.0 160.8 1006 0 2 Image Chart
2016 8 8 18 17.0 160.1 1002 0 2 Image Chart
2016 8 9 00 16.9 159.3 1000 35 3 Image Chart
2016 8 9 06 16.8 158.7 996 40 3 Image Chart
2016 8 9 12 17.0 157.8 990 45 3 Image Chart
2016 8 9 18 17.7 156.9 990 45 3 Image Chart
2016 8 10 00 18.0 156.0 990 45 3 Image Chart
2016 8 10 06 18.6 155.1 990 45 3 Image Chart
2016 8 10 12 18.9 154.4 990 45 3 Image Chart
2016 8 10 18 19.6 154.0 990 45 3 Image Chart
2016 8 11 00 20.0 153.6 990 45 3 Image Chart
2016 8 11 06 20.5 154.0 990 45 3 Image Chart
2016 8 11 12 21.9 154.3 990 45 3 Image Chart
2016 8 11 18 23.5 155.0 990 45 3 Image Chart
2016 8 12 00 25.2 155.5 990 45 3 Image Chart
2016 8 12 06 26.2 155.7 990 40 3 Image Chart
2016 8 12 12 28.0 156.4 990 40 3 Image Chart
2016 8 12 18 28.9 156.6 990 40 3 Image Chart
2016 8 13 00 29.9 155.5 990 40 3 Image Chart
2016 8 13 06 31.6 154.3 985 45 3 Image Chart
2016 8 13 12 32.6 153.1 985 45 3 Image Chart
2016 8 13 18 33.9 152.2 985 45 3 Image Chart
2016 8 14 00 35.7 151.1 985 45 3 Image Chart
2016 8 14 06 38.1 149.5 985 45 3 Image Chart
2016 8 14 12 40.2 148.0 990 40 3 Image Chart
2016 8 14 18 42.1 145.9 990 40 3 Image Chart
2016 8 14 23 43.3 145.5 988 40 3 Image Chart
2016 8 15 00 43.6 145.6 990 0 6 Image Chart
2016 8 15 06 46.3 145.4 992 0 6 Image Chart
2016 8 15 12 48.8 146.1 996 0 6 Image Chart
2016 8 15 18 53.2 145.2 996 0 6 Image Chart
2016 8 16 00 56.1 142.6 996 0 6 Image Chart
2016 8 16 06 57.2 142.0 998 0 6 Image Chart
2016 8 16 12 58.7 143.1 1000 0 6 Image Chart
Japan Meteorological Agency Best Track Data | Correction Date : 2016-09-15
< Typhoon 201605 2016 Season Typhoon 201607 >

Help